createdAt,value
2019-03-28T00:00:45.969Z,98145.52
2019-03-28T00:01:49.671Z,98134.40
2019-03-28T00:02:53.610Z,98133.64
2019-03-28T00:03:57.244Z,98143.55
2019-03-28T00:05:00.874Z,98135.82
2019-03-28T00:06:04.610Z,98137.69
2019-03-28T00:07:08.243Z,98141.16
2019-03-28T00:08:12.672Z,98142.98
2019-03-28T00:09:16.531Z,98144.50
2019-03-28T00:10:20.227Z,98144.23
2019-03-28T00:11:24.217Z,98147.17
2019-03-28T00:12:28.010Z,98146.95
2019-03-28T00:13:31.643Z,98146.67
2019-03-28T00:14:35.573Z,98147.20
2019-03-28T00:15:39.194Z,98145.92
2019-03-28T00:16:42.827Z,98139.25
2019-03-28T00:17:46.510Z,98142.45
2019-03-28T00:18:50.217Z,98143.47
2019-03-28T00:19:53.850Z,98140.23
2019-03-28T00:20:57.548Z,98143.25
2019-03-28T00:22:01.284Z,98148.63
2019-03-28T00:23:09.613Z,98143.33
2019-03-28T00:24:17.660Z,98143.06
2019-03-28T00:25:22.862Z,98135.82
2019-03-28T00:26:30.493Z,98138.44
2019-03-28T00:27:31.870Z,98141.91
2019-03-28T00:28:35.501Z,98138.26
2019-03-28T00:29:39.052Z,98140.73
2019-03-28T00:30:42.888Z,98146.58
2019-03-28T00:31:48.060Z,98145.01
2019-03-28T00:32:52.403Z,98141.55
2019-03-28T00:33:56.279Z,98146.61
2019-03-28T00:35:00.213Z,98149.77
2019-03-28T00:36:04.183Z,98150.80
2019-03-28T00:37:08.910Z,98156.17
2019-03-28T00:38:12.719Z,98158.38
2019-03-28T00:39:16.356Z,98155.32
2019-03-28T00:40:19.985Z,98153.95
2019-03-28T00:41:23.619Z,98160.12
2019-03-28T00:42:27.246Z,98161.48
2019-03-28T00:43:30.908Z,98156.45
2019-03-28T00:44:34.602Z,98161.22
2019-03-28T00:45:38.302Z,98156.98
2019-03-28T00:46:42.002Z,98158.91
2019-03-28T00:47:45.711Z,98158.14
2019-03-28T00:48:49.373Z,98159.47
2019-03-28T00:49:52.996Z,98155.95
2019-03-28T00:50:56.622Z,98157.28
2019-03-28T00:52:00.258Z,98161.31
2019-03-28T00:53:03.956Z,98163.17
2019-03-28T00:54:07.621Z,98164.56
2019-03-28T00:55:11.541Z,98161.84
2019-03-28T00:56:15.142Z,98167.14
2019-03-28T00:57:19.249Z,98163.65
2019-03-28T00:58:23.003Z,98166.02
2019-03-28T00:59:26.596Z,98166.61
2019-03-28T01:00:30.232Z,98163.17
2019-03-28T01:01:33.847Z,98173.84
2019-03-28T01:02:37.470Z,98172.48
2019-03-28T01:03:41.439Z,98179.94
2019-03-28T01:04:45.107Z,98175.97
2019-03-28T01:05:48.745Z,98173.06
2019-03-28T01:06:52.360Z,98177.06
2019-03-28T01:07:55.920Z,98176.77
2019-03-28T01:08:59.541Z,98179.67
2019-03-28T01:10:03.219Z,98180.20
2019-03-28T01:11:06.833Z,98176.05
2019-03-28T01:12:10.773Z,98177.91
2019-03-28T01:13:14.339Z,98176.81
2019-03-28T01:14:17.971Z,98176.77
2019-03-28T01:15:21.632Z,98171.97
2019-03-28T01:16:25.650Z,98177.80
2019-03-28T01:17:29.207Z,98169.28
2019-03-28T01:18:32.830Z,98172.15
2019-03-28T01:19:36.387Z,98174.02
2019-03-28T01:20:39.904Z,98176.16
2019-03-28T01:21:43.544Z,98172.69
2019-03-28T01:22:47.169Z,98178.05
2019-03-28T01:23:50.729Z,98175.65
2019-03-28T01:24:54.350Z,98179.91
2019-03-28T01:25:57.932Z,98177.80
2019-03-28T01:27:01.491Z,98181.30
2019-03-28T01:28:05.052Z,98182.39
2019-03-28T01:29:08.678Z,98180.79
2019-03-28T01:30:12.608Z,98186.66
2019-03-28T01:31:16.273Z,98187.72
2019-03-28T01:32:20.152Z,98190.66
2019-03-28T01:33:23.778Z,98192.78
2019-03-28T01:34:27.411Z,98190.92
2019-03-28T01:35:31.403Z,98201.37
2019-03-28T01:36:34.991Z,98202.17
2019-03-28T01:37:38.607Z,98199.02
2019-03-28T01:38:42.241Z,98200.66
2019-03-28T01:39:45.927Z,98203.31
2019-03-28T01:40:49.553Z,98206.23
2019-03-28T01:41:53.289Z,98199.84
2019-03-28T01:42:56.918Z,98201.98
2019-03-28T01:44:00.889Z,98206.70
2019-03-28T01:45:06.518Z,98200.35
2019-03-28T01:46:10.148Z,98201.25
2019-03-28T01:47:13.743Z,98203.09
2019-03-28T01:48:17.665Z,98206.79
2019-03-28T01:49:21.287Z,98202.54
2019-03-28T01:50:24.917Z,98211.61
2019-03-28T01:51:28.545Z,98205.73
2019-03-28T01:52:32.212Z,98206.27
2019-03-28T01:53:35.842Z,98207.31
2019-03-28T01:54:39.472Z,98210.55
2019-03-28T01:55:43.103Z,98212.67
2019-03-28T01:56:46.736Z,98210.55
2019-03-28T01:57:50.455Z,98210.27
2019-03-28T01:58:55.185Z,98201.98
2019-03-28T01:59:58.937Z,98208.95
2019-03-28T02:01:03.056Z,98200.66
2019-03-28T02:02:06.713Z,98204.92
2019-03-28T02:03:11.269Z,98208.92
2019-03-28T02:04:15.052Z,98209.73
2019-03-28T02:05:18.675Z,98214.81
2019-03-28T02:06:22.294Z,98209.48
2019-03-28T02:07:25.913Z,98212.12
2019-03-28T02:08:29.614Z,98209.47
2019-03-28T02:09:33.589Z,98208.17
2019-03-28T02:10:37.288Z,98212.73
2019-03-28T02:11:40.932Z,98215.64
2019-03-28T02:12:44.868Z,98217.80
2019-03-28T02:13:48.557Z,98218.05
2019-03-28T02:14:52.226Z,98215.93
2019-03-28T02:15:55.918Z,98211.66
2019-03-28T02:16:59.547Z,98220.70
2019-03-28T02:18:03.348Z,98214.84
2019-03-28T02:19:07.086Z,98222.82
2019-03-28T02:20:11.644Z,98219.65
2019-03-28T02:21:15.354Z,98216.44
2019-03-28T02:22:19.414Z,98216.17
2019-03-28T02:23:23.260Z,98218.30
2019-03-28T02:24:26.894Z,98222.55
2019-03-28T02:25:30.615Z,98223.37
2019-03-28T02:26:34.444Z,98223.37
2019-03-28T02:27:38.009Z,98222.84
2019-03-28T02:28:42.003Z,98229.20
2019-03-28T02:29:45.636Z,98223.91
2019-03-28T02:30:50.603Z,98222.84
2019-03-28T02:31:54.400Z,98222.84
2019-03-28T02:32:58.030Z,98224.72
2019-03-28T02:34:01.724Z,98220.17
2019-03-28T02:35:06.275Z,98222.03
2019-03-28T02:36:10.073Z,98219.92
2019-03-28T02:37:13.710Z,98216.19
2019-03-28T02:38:17.335Z,98219.12
2019-03-28T02:39:20.951Z,98225.50
2019-03-28T02:40:24.580Z,98219.39
2019-03-28T02:41:28.304Z,98219.91
2019-03-28T02:42:31.926Z,98221.22
2019-03-28T02:43:35.555Z,98224.44
2019-03-28T02:44:39.183Z,98228.13
2019-03-28T02:45:43.141Z,98224.66
2019-03-28T02:46:46.798Z,98223.60
2019-03-28T02:47:50.428Z,98223.84
2019-03-28T02:48:54.129Z,98223.61
2019-03-28T02:49:57.766Z,98222.52
2019-03-28T02:51:01.392Z,98225.18
2019-03-28T02:52:05.121Z,98230.52
2019-03-28T02:53:08.753Z,98228.66
2019-03-28T02:54:12.464Z,98229.70
2019-03-28T02:55:16.093Z,98230.27
2019-03-28T02:56:20.113Z,98226.81
2019-03-28T02:57:39.603Z,98231.31
2019-03-28T02:58:29.124Z,98229.46
2019-03-28T02:59:32.826Z,98224.96
2019-03-28T03:00:36.530Z,98229.73
2019-03-28T03:01:40.641Z,98230.80
2019-03-28T03:02:44.467Z,98226.80
2019-03-28T03:03:48.107Z,98238.77
2019-03-28T03:04:51.800Z,98237.70
2019-03-28T03:05:55.423Z,98239.02
2019-03-28T03:06:58.985Z,98239.55
2019-03-28T03:08:02.653Z,98237.12
2019-03-28T03:09:09.353Z,98239.23
2019-03-28T03:10:13.085Z,98236.30
2019-03-28T03:11:16.705Z,98234.69
2019-03-28T03:12:20.463Z,98238.40
2019-03-28T03:13:24.094Z,98240.23
2019-03-28T03:14:27.716Z,98240.22
2019-03-28T03:15:31.345Z,98243.36
2019-03-28T03:16:35.030Z,98240.22
2019-03-28T03:17:38.810Z,98243.41
2019-03-28T03:18:42.474Z,98242.88
2019-03-28T03:19:46.099Z,98241.80
2019-03-28T03:20:49.743Z,98244.98
2019-03-28T03:21:53.359Z,98241.55
2019-03-28T03:22:56.979Z,98244.23
2019-03-28T03:24:00.641Z,98244.23
2019-03-28T03:25:08.326Z,98244.50
2019-03-28T03:26:11.986Z,98246.11
2019-03-28T03:27:15.612Z,98240.80
2019-03-28T03:28:19.183Z,98246.95
2019-03-28T03:29:24.488Z,98239.48
2019-03-28T03:30:28.430Z,98241.09
2019-03-28T03:31:32.131Z,98240.05
2019-03-28T03:32:35.858Z,98241.61
2019-03-28T03:33:39.415Z,98242.93
2019-03-28T03:34:43.088Z,98244.49
2019-03-28T03:35:46.717Z,98245.84
2019-03-28T03:36:50.272Z,98246.64
2019-03-28T03:37:54.354Z,98243.97
2019-03-28T03:38:59.353Z,98248.50
2019-03-28T03:40:03.297Z,98249.01
2019-03-28T03:41:07.118Z,98249.25
2019-03-28T03:42:10.763Z,98250.30
2019-03-28T03:43:14.761Z,98248.19
2019-03-28T03:44:18.428Z,98242.63
2019-03-28T03:45:22.103Z,98244.75
2019-03-28T03:46:25.725Z,98248.75
2019-03-28T03:47:29.279Z,98249.32
2019-03-28T03:48:32.915Z,98249.83
2019-03-28T03:49:36.540Z,98254.07
2019-03-28T03:50:40.192Z,98255.67
2019-03-28T03:51:46.483Z,98254.61
2019-03-28T03:52:49.175Z,98256.20
2019-03-28T03:53:52.812Z,98249.81
2019-03-28T03:54:56.438Z,98255.41
2019-03-28T03:56:00.015Z,98252.19
2019-03-28T03:57:03.636Z,98252.47
2019-03-28T03:58:15.258Z,98252.72
2019-03-28T03:59:12.628Z,98251.66
2019-03-28T04:00:19.168Z,98250.32
2019-03-28T04:01:22.827Z,98258.52
2019-03-28T04:02:26.478Z,98255.34
2019-03-28T04:03:30.031Z,98256.42
2019-03-28T04:04:33.674Z,98255.89
2019-03-28T04:05:37.356Z,98261.50
2019-03-28T04:06:42.162Z,98259.36
2019-03-28T04:07:45.787Z,98261.52
2019-03-28T04:08:49.421Z,98257.28
2019-03-28T04:09:52.982Z,98263.13
2019-03-28T04:10:56.965Z,98261.80
2019-03-28T04:12:00.551Z,98260.98
2019-03-28T04:13:04.199Z,98266.05
2019-03-28T04:14:07.812Z,98262.06
2019-03-28T04:15:11.523Z,98264.72
2019-03-28T04:16:15.147Z,98268.14
2019-03-28T04:17:18.792Z,98259.11
2019-03-28T04:18:22.631Z,98267.64
2019-03-28T04:19:26.337Z,98267.06
2019-03-28T04:20:29.978Z,98263.61
2019-03-28T04:21:33.599Z,98256.97
2019-03-28T04:22:37.494Z,98262.53
2019-03-28T04:23:41.274Z,98261.23
2019-03-28T04:24:44.906Z,98264.43
2019-03-28T04:25:48.536Z,98257.79
2019-03-28T04:26:52.163Z,98261.20
2019-03-28T04:27:55.833Z,98265.16
2019-03-28T04:28:59.402Z,98263.28
2019-03-28T04:30:03.046Z,98263.27
2019-03-28T04:31:06.671Z,98268.05
2019-03-28T04:32:10.311Z,98265.89
2019-03-28T04:33:13.981Z,98266.70
2019-03-28T04:34:17.606Z,98269.88
2019-03-28T04:35:21.231Z,98271.44
2019-03-28T04:36:24.861Z,98279.31
2019-03-28T04:37:28.497Z,98279.81
2019-03-28T04:38:32.212Z,98279.22
2019-03-28T04:39:35.877Z,98278.95
2019-03-28T04:40:39.865Z,98277.65
2019-03-28T04:41:43.502Z,98275.45
2019-03-28T04:42:47.551Z,98276.98
2019-03-28T04:43:55.405Z,98280.13
2019-03-28T04:44:56.940Z,98282.50
2019-03-28T04:46:00.557Z,98277.95
2019-03-28T04:47:04.201Z,98277.95
2019-03-28T04:48:07.934Z,98278.27
2019-03-28T04:49:11.520Z,98279.28
2019-03-28T04:50:15.297Z,98278.77
2019-03-28T04:51:18.948Z,98284.42
2019-03-28T04:52:22.588Z,98293.05
2019-03-28T04:53:26.223Z,98295.89
2019-03-28T04:54:29.864Z,98296.52
2019-03-28T04:55:33.886Z,98298.45
2019-03-28T04:56:38.258Z,98293.06
2019-03-28T04:57:41.964Z,98291.66
2019-03-28T04:58:45.617Z,98297.10
2019-03-28T04:59:49.280Z,98305.28
2019-03-28T05:00:53.530Z,98303.67
2019-03-28T05:02:02.982Z,98300.42
2019-03-28T05:03:02.581Z,98304.05
2019-03-28T05:04:06.218Z,98303.03
2019-03-28T05:05:10.753Z,98310.11
2019-03-28T05:06:14.442Z,98304.70
2019-03-28T05:07:18.088Z,98303.34
2019-03-28T05:08:21.724Z,98300.30
2019-03-28T05:09:25.502Z,98307.67
2019-03-28T05:10:29.275Z,98302.47
2019-03-28T05:11:33.397Z,98305.66
2019-03-28T05:12:37.165Z,98307.22
2019-03-28T05:13:40.821Z,98305.36
2019-03-28T05:14:44.503Z,98301.86
2019-03-28T05:15:48.231Z,98305.89
2019-03-28T05:16:51.912Z,98300.02
2019-03-28T05:17:55.485Z,98305.27
2019-03-28T05:18:59.130Z,98304.41
2019-03-28T05:20:03.172Z,98306.47
2019-03-28T05:21:06.823Z,98306.24
2019-03-28T05:22:10.500Z,98307.85
2019-03-28T05:23:14.383Z,98308.66
2019-03-28T05:24:18.255Z,98304.74
2019-03-28T05:25:21.891Z,98310.86
2019-03-28T05:26:25.623Z,98314.13
2019-03-28T05:27:29.196Z,98311.02
2019-03-28T05:28:32.836Z,98313.52
2019-03-28T05:29:36.512Z,98310.15
2019-03-28T05:30:40.156Z,98312.32
2019-03-28T05:31:43.796Z,98311.72
2019-03-28T05:32:47.484Z,98316.73
2019-03-28T05:33:51.447Z,98315.50
2019-03-28T05:34:55.448Z,98316.58
2019-03-28T05:35:59.161Z,98314.18
2019-03-28T05:37:02.879Z,98313.97
2019-03-28T05:38:06.525Z,98315.34
2019-03-28T05:39:10.152Z,98322.02
2019-03-28T05:40:14.072Z,98318.84
2019-03-28T05:41:17.711Z,98319.66
2019-03-28T05:42:21.329Z,98319.61
2019-03-28T05:43:25.056Z,98322.23
2019-03-28T05:44:29.231Z,98317.44
2019-03-28T05:45:35.101Z,98315.83
2019-03-28T05:46:38.746Z,98312.61
2019-03-28T05:47:42.401Z,98314.74
2019-03-28T05:48:46.063Z,98314.27
2019-03-28T05:49:49.668Z,98313.55
2019-03-28T05:50:53.350Z,98318.66
2019-03-28T05:51:57.004Z,98313.87
2019-03-28T05:53:02.328Z,98318.17
2019-03-28T05:54:06.060Z,98317.36
2019-03-28T05:55:09.960Z,98319.85
2019-03-28T05:56:13.548Z,98318.34
2019-03-28T05:57:19.243Z,98323.69
2019-03-28T05:58:22.883Z,98325.27
2019-03-28T05:59:26.523Z,98324.25
2019-03-28T06:00:30.209Z,98323.20
2019-03-28T06:01:33.864Z,98322.43
2019-03-28T06:02:37.495Z,98321.31
2019-03-28T06:03:41.012Z,98324.28
2019-03-28T06:04:44.645Z,98326.69
2019-03-28T06:05:48.372Z,98322.67
2019-03-28T06:06:52.022Z,98325.05
2019-03-28T06:07:55.669Z,98323.41
2019-03-28T06:08:59.302Z,98326.84
2019-03-28T06:10:03.630Z,98322.58
2019-03-28T06:11:07.321Z,98314.89
2019-03-28T06:12:13.865Z,98319.46
2019-03-28T06:13:17.444Z,98323.51
2019-03-28T06:14:21.288Z,98317.15
2019-03-28T06:15:24.983Z,98324.06
2019-03-28T06:16:29.003Z,98314.07
2019-03-28T06:17:32.639Z,98319.16
2019-03-28T06:18:36.287Z,98317.08
2019-03-28T06:19:39.945Z,98315.50
2019-03-28T06:20:43.609Z,98314.72
2019-03-28T06:21:47.548Z,98322.94
2019-03-28T06:22:51.513Z,98323.25
2019-03-28T06:23:55.040Z,98322.28
2019-03-28T06:24:58.695Z,98322.05
2019-03-28T06:26:02.333Z,98319.92
2019-03-28T06:27:05.922Z,98323.92
2019-03-28T06:28:09.559Z,98323.16
2019-03-28T06:29:23.235Z,98325.57
2019-03-28T06:30:19.584Z,98323.18
2019-03-28T06:31:23.223Z,98326.91
2019-03-28T06:32:26.832Z,98324.82
2019-03-28T06:33:30.465Z,98325.61
2019-03-28T06:34:34.113Z,98333.08
2019-03-28T06:35:37.858Z,98328.83
2019-03-28T06:36:41.481Z,98332.00
2019-03-28T06:37:45.118Z,98331.48
2019-03-28T06:38:48.759Z,98337.08
2019-03-28T06:39:52.398Z,98327.73
2019-03-28T06:40:56.014Z,98330.67
2019-03-28T06:41:59.635Z,98328.27
2019-03-28T06:43:03.387Z,98325.33
2019-03-28T06:44:07.030Z,98323.74
2019-03-28T06:45:10.950Z,98328.78
2019-03-28T06:46:15.687Z,98328.19
2019-03-28T06:47:21.096Z,98326.55
2019-03-28T06:48:24.689Z,98327.32
2019-03-28T06:49:28.341Z,98329.70
2019-03-28T06:50:32.063Z,98334.52
2019-03-28T06:51:35.691Z,98331.33
2019-03-28T06:52:39.539Z,98327.31
2019-03-28T06:53:45.508Z,98322.50
2019-03-28T06:54:49.144Z,98321.67
2019-03-28T06:55:52.805Z,98322.64
2019-03-28T06:56:56.376Z,98322.33
2019-03-28T06:58:00.004Z,98321.70
2019-03-28T06:59:03.572Z,98318.20
2019-03-28T07:00:11.344Z,98325.08
2019-03-28T07:01:15.365Z,98320.50
2019-03-28T07:02:21.756Z,98320.70
2019-03-28T07:03:24.368Z,98324.67
2019-03-28T07:04:27.997Z,98325.89
2019-03-28T07:05:31.883Z,98325.81
2019-03-28T07:06:35.519Z,98328.43
2019-03-28T07:07:39.222Z,98324.80
2019-03-28T07:08:42.859Z,98318.39
2019-03-28T07:09:46.550Z,98323.97
2019-03-28T07:10:50.238Z,98322.52
2019-03-28T07:11:53.947Z,98327.00
2019-03-28T07:12:57.512Z,98328.34
2019-03-28T07:14:01.136Z,98326.62
2019-03-28T07:15:06.987Z,98325.49
2019-03-28T07:16:10.626Z,98327.36
2019-03-28T07:17:14.251Z,98328.89
2019-03-28T07:18:17.896Z,98327.42
2019-03-28T07:19:21.847Z,98331.91
2019-03-28T07:20:26.321Z,98327.45
2019-03-28T07:21:30.535Z,98326.19
2019-03-28T07:22:34.174Z,98323.17
2019-03-28T07:23:37.815Z,98323.06
2019-03-28T07:24:41.391Z,98317.86
2019-03-28T07:25:45.058Z,98326.63
2019-03-28T07:26:48.634Z,98320.45
2019-03-28T07:27:52.201Z,98324.48
2019-03-28T07:28:55.848Z,98320.72
2019-03-28T07:29:59.560Z,98326.34
2019-03-28T07:31:03.270Z,98326.34
2019-03-28T07:32:06.919Z,98314.96
2019-03-28T07:33:10.554Z,98314.96
2019-03-28T07:34:14.205Z,98313.61
2019-03-28T07:35:17.893Z,98310.19
2019-03-28T07:36:21.598Z,98272.53
2019-03-28T07:37:27.965Z,98310.64
2019-03-28T07:38:33.392Z,98312.38
2019-03-28T07:39:37.097Z,98311.59
2019-03-28T07:40:40.753Z,98300.37
2019-03-28T07:41:44.421Z,98305.52
2019-03-28T07:42:48.058Z,98303.86
2019-03-28T07:43:51.700Z,98301.18
2019-03-28T07:44:55.347Z,98296.78
2019-03-28T07:45:58.995Z,98297.42
2019-03-28T07:47:02.668Z,98302.22
2019-03-28T07:48:06.312Z,98304.01
2019-03-28T07:49:09.959Z,98295.27
2019-03-28T07:50:14.069Z,98298.78
2019-03-28T07:51:17.709Z,98298.16
2019-03-28T07:52:21.390Z,98292.13
2019-03-28T07:53:25.031Z,98303.87
2019-03-28T07:54:29.087Z,98304.42
2019-03-28T07:55:32.731Z,98305.72
2019-03-28T07:56:36.685Z,98300.77
2019-03-28T07:57:40.866Z,98298.59
2019-03-28T07:58:45.329Z,98288.85
2019-03-28T07:59:49.202Z,98293.33
2019-03-28T08:00:52.841Z,98287.86
2019-03-28T08:01:56.488Z,98292.27
2019-03-28T08:03:00.162Z,98296.28
2019-03-28T08:04:03.803Z,98294.29
2019-03-28T08:05:09.576Z,98282.73
2019-03-28T08:06:13.209Z,98283.52
2019-03-28T08:07:16.914Z,98280.72
2019-03-28T08:08:20.590Z,98277.55
2019-03-28T08:09:36.041Z,98278.47
2019-03-28T08:10:29.590Z,98264.55
2019-03-28T08:11:33.447Z,98272.59
2019-03-28T08:12:37.107Z,98277.22
2019-03-28T08:13:40.777Z,98273.82
2019-03-28T08:14:44.410Z,98273.52
2019-03-28T08:15:48.054Z,98270.25
2019-03-28T08:16:51.687Z,98272.95
2019-03-28T08:17:55.821Z,98270.25
2019-03-28T08:18:59.503Z,98267.77
2019-03-28T08:20:03.643Z,98265.48
2019-03-28T08:21:07.279Z,98264.13
2019-03-28T08:22:10.913Z,98271.59
2019-03-28T08:23:14.547Z,98272.86
2019-03-28T08:24:18.223Z,98261.42
2019-03-28T08:25:21.852Z,98270.44
2019-03-28T08:26:25.891Z,98264.73
2019-03-28T08:27:29.527Z,98264.67
2019-03-28T08:28:33.167Z,98255.81
2019-03-28T08:29:36.790Z,98252.51
2019-03-28T08:30:40.430Z,98256.67
2019-03-28T08:31:46.203Z,98257.48
2019-03-28T08:32:49.877Z,98254.20
2019-03-28T08:33:53.513Z,98251.80
2019-03-28T08:34:57.650Z,98251.03
2019-03-28T08:36:02.392Z,98251.11
2019-03-28T08:37:06.072Z,98250.09
2019-03-28T08:38:10.441Z,98244.34
2019-03-28T08:39:14.716Z,98241.54
2019-03-28T08:40:39.851Z,98245.06
2019-03-28T08:41:44.161Z,98236.26
2019-03-28T08:42:47.837Z,98236.09
2019-03-28T08:43:51.478Z,98235.45
2019-03-28T08:44:55.130Z,98234.22
2019-03-28T08:45:58.764Z,98236.53
2019-03-28T08:47:02.395Z,98231.98
2019-03-28T08:48:07.526Z,98229.37
2019-03-28T08:49:11.198Z,98229.52
2019-03-28T08:50:14.867Z,98224.23
2019-03-28T08:51:18.511Z,98219.80
2019-03-28T08:52:22.141Z,98216.63
2019-03-28T08:53:25.833Z,98220.22
2019-03-28T08:54:29.323Z,98222.44
2019-03-28T08:55:32.957Z,98217.45
2019-03-28T08:56:36.593Z,98217.66
2019-03-28T08:57:40.273Z,98213.92
2019-03-28T08:58:43.936Z,98211.14
2019-03-28T09:02:30.619Z,98214.28
2019-03-28T09:03:34.309Z,98213.02
2019-03-28T09:04:37.924Z,98208.96
2019-03-28T09:05:41.571Z,98209.25
2019-03-28T09:06:45.208Z,98210.44
2019-03-28T09:07:48.848Z,98207.63
2019-03-28T09:08:52.461Z,98205.08
2019-03-28T09:09:56.074Z,98205.46
2019-03-28T09:10:59.631Z,98197.02
2019-03-28T09:12:03.363Z,98192.81
2019-03-28T09:15:52.533Z,98200.78
2019-03-28T09:16:56.248Z,98192.09
2019-03-28T09:18:00.363Z,98195.96
2019-03-28T09:20:25.449Z,98190.72
2019-03-28T09:21:29.091Z,98192.76
2019-03-28T09:22:32.718Z,98187.91
2019-03-28T09:23:36.614Z,98187.52
2019-03-28T09:24:40.243Z,98191.84
2019-03-28T09:25:43.911Z,98185.56
2019-03-28T09:26:47.548Z,98189.69
2019-03-28T09:27:51.768Z,98191.39
2019-03-28T09:28:55.615Z,98185.92
2019-03-28T09:29:59.258Z,98179.17
2019-03-28T09:31:02.923Z,98183.94
2019-03-28T09:32:06.560Z,98185.74
2019-03-28T09:33:10.505Z,98182.98
2019-03-28T09:34:14.215Z,98184.14
2019-03-28T09:35:20.767Z,98180.31
2019-03-28T09:36:24.428Z,98176.76
2019-03-28T09:37:28.072Z,98174.77
2019-03-28T09:38:31.705Z,98178.39
2019-03-28T09:39:35.362Z,98171.26
2019-03-28T09:40:38.927Z,98170.14
2019-03-28T09:41:42.612Z,98166.48
2019-03-28T09:42:46.276Z,98169.47
2019-03-28T09:43:55.547Z,98163.71
2019-03-28T09:44:55.723Z,98167.80
2019-03-28T09:46:00.500Z,98168.73
2019-03-28T09:47:05.156Z,98169.80
2019-03-28T09:48:11.623Z,98167.68
2019-03-28T09:49:14.535Z,98167.82
2019-03-28T09:50:18.100Z,98168.70
2019-03-28T09:51:21.727Z,98166.41
2019-03-28T09:52:25.390Z,98159.25
2019-03-28T09:53:29.023Z,98158.88
2019-03-28T09:54:32.661Z,98164.02
2019-03-28T09:55:36.313Z,98171.20
2019-03-28T09:56:39.937Z,98164.84
2019-03-28T09:57:43.599Z,98155.00
2019-03-28T09:58:47.240Z,98155.53
2019-03-28T09:59:50.865Z,98154.29
2019-03-28T10:01:02.669Z,98146.39
2019-03-28T10:02:01.398Z,98151.48
2019-03-28T10:03:05.682Z,98145.31
2019-03-28T10:04:09.653Z,98146.44
2019-03-28T10:05:14.770Z,98138.09
2019-03-28T10:06:18.409Z,98143.20
2019-03-28T10:07:22.041Z,98140.03
2019-03-28T10:08:25.817Z,98140.34
2019-03-28T10:09:29.766Z,98139.08
2019-03-28T10:10:33.414Z,98143.77
2019-03-28T10:11:37.220Z,98143.42
2019-03-28T10:12:43.949Z,98139.88
2019-03-28T10:13:46.252Z,98133.14
2019-03-28T10:14:49.893Z,98132.97
2019-03-28T10:15:53.530Z,98133.37
2019-03-28T10:16:57.250Z,98130.02
2019-03-28T10:18:00.892Z,98136.33
2019-03-28T10:19:04.984Z,98133.57
2019-03-28T10:20:09.077Z,98131.95
2019-03-28T10:21:12.723Z,98134.45
2019-03-28T10:22:16.346Z,98133.07
2019-03-28T10:23:20.042Z,98129.62
2019-03-28T10:24:23.706Z,98131.86
2019-03-28T10:25:27.341Z,98127.61
2019-03-28T10:26:30.977Z,98125.76
2019-03-28T10:27:34.610Z,98127.86
2019-03-28T10:28:38.263Z,98129.20
2019-03-28T10:29:41.978Z,98122.14
2019-03-28T10:30:45.814Z,98115.81
2019-03-28T10:31:49.459Z,98118.56
2019-03-28T10:32:53.092Z,98118.27
2019-03-28T10:33:57.117Z,98116.75
2019-03-28T10:35:00.882Z,98111.88
2019-03-28T10:36:04.521Z,98102.73
2019-03-28T10:37:08.156Z,98115.73
2019-03-28T10:38:11.773Z,98107.66
2019-03-28T10:39:15.415Z,98112.97
2019-03-28T10:40:19.068Z,98110.52
2019-03-28T10:41:25.735Z,98102.47
2019-03-28T10:42:28.072Z,98108.78
2019-03-28T10:43:31.727Z,98107.44
2019-03-28T10:44:35.350Z,98101.47
2019-03-28T10:45:39.037Z,98097.91
2019-03-28T10:46:42.612Z,98089.17
2019-03-28T10:47:46.237Z,98085.38
2019-03-28T10:48:49.877Z,98090.20
2019-03-28T10:49:53.521Z,98087.41
2019-03-28T10:50:57.193Z,98087.81
2019-03-28T10:52:03.929Z,98085.50
2019-03-28T10:53:06.189Z,98078.30
2019-03-28T10:54:19.808Z,98085.14
2019-03-28T10:55:15.289Z,98090.34
2019-03-28T10:56:23.389Z,98078.69
2019-03-28T10:57:29.747Z,98083.62
2019-03-28T10:58:30.024Z,98087.59
2019-03-28T10:59:33.990Z,98078.21
2019-03-28T11:00:38.099Z,98078.99
2019-03-28T11:01:49.030Z,98074.41
2019-03-28T11:02:47.219Z,98076.92
2019-03-28T11:03:50.839Z,98072.70
2019-03-28T11:04:54.454Z,98077.70
2019-03-28T11:05:58.170Z,98070.19
2019-03-28T11:07:01.881Z,98071.75
2019-03-28T11:08:05.525Z,98077.09
2019-03-28T11:09:09.455Z,98069.03
2019-03-28T11:10:13.390Z,98070.03
2019-03-28T11:11:17.033Z,98063.22
2019-03-28T11:12:21.111Z,98061.17
2019-03-28T11:13:24.827Z,98068.71
2019-03-28T11:14:28.450Z,98050.67
2019-03-28T11:15:32.078Z,98048.99
2019-03-28T11:16:35.710Z,98047.42
2019-03-28T11:17:39.380Z,98045.37
2019-03-28T11:18:43.080Z,98055.05
2019-03-28T11:19:46.710Z,98044.77
2019-03-28T11:20:50.346Z,98046.14
2019-03-28T11:21:53.984Z,98047.04
2019-03-28T11:22:57.642Z,98046.83
2019-03-28T11:24:01.266Z,98036.41
2019-03-28T11:25:06.740Z,98035.19
2019-03-28T11:26:10.378Z,98040.05
2019-03-28T11:27:14.012Z,98039.38
2019-03-28T11:28:17.740Z,98034.83
2019-03-28T11:29:21.335Z,98033.10
2019-03-28T11:30:25.656Z,98021.84
2019-03-28T11:31:29.402Z,98033.49
2019-03-28T11:32:35.740Z,98024.50
2019-03-28T11:33:38.483Z,98019.95
2019-03-28T11:34:42.055Z,98027.19
2019-03-28T11:35:45.681Z,98027.87
2019-03-28T11:36:49.704Z,98021.73
2019-03-28T11:37:53.362Z,98025.23
2019-03-28T11:38:56.929Z,98018.17
2019-03-28T11:40:00.577Z,98018.23
2019-03-28T11:41:04.211Z,98022.61
2019-03-28T11:42:07.907Z,98016.69
2019-03-28T11:43:11.546Z,98010.09
2019-03-28T11:44:15.214Z,98001.18
2019-03-28T11:45:18.843Z,98003.89
2019-03-28T11:46:22.476Z,97996.14
2019-03-28T11:47:26.115Z,97988.80
2019-03-28T11:48:29.751Z,97986.56
2019-03-28T11:49:33.715Z,97991.81
2019-03-28T11:50:37.391Z,97993.14
2019-03-28T11:51:41.025Z,97986.75
2019-03-28T11:52:44.773Z,97980.48
2019-03-28T11:53:48.426Z,97983.44
2019-03-28T11:54:52.184Z,97978.55
2019-03-28T11:55:55.810Z,97983.05
2019-03-28T11:56:59.740Z,97989.31
2019-03-28T11:58:03.391Z,97986.68
2019-03-28T11:59:07.180Z,97984.13
2019-03-28T12:00:13.452Z,97980.11
2019-03-28T12:01:17.060Z,97982.71
2019-03-28T12:02:20.851Z,97981.44
2019-03-28T12:03:24.436Z,97970.77
2019-03-28T12:04:28.006Z,97970.39
2019-03-28T12:05:31.659Z,97966.02
2019-03-28T12:06:35.280Z,97964.83
2019-03-28T12:07:38.929Z,97969.14
2019-03-28T12:08:42.569Z,97967.38
2019-03-28T12:09:46.200Z,97960.83
2019-03-28T12:10:49.840Z,97957.70
2019-03-28T12:11:53.520Z,97950.55
2019-03-28T12:12:57.192Z,97953.62
2019-03-28T12:14:00.841Z,97947.49
2019-03-28T12:15:06.174Z,97946.83
2019-03-28T12:16:09.774Z,97948.66
2019-03-28T12:17:13.408Z,97948.77
2019-03-28T12:18:16.965Z,97950.88
2019-03-28T12:19:20.637Z,97949.87
2019-03-28T12:20:24.247Z,97946.80
2019-03-28T12:21:27.895Z,97936.04
2019-03-28T12:22:31.624Z,97935.18
2019-03-28T12:23:35.274Z,97936.91
2019-03-28T12:24:38.906Z,97936.58
2019-03-28T12:25:42.899Z,97927.84
2019-03-28T12:26:46.568Z,97930.63
2019-03-28T12:27:50.330Z,97935.22
2019-03-28T12:28:53.921Z,97917.55
2019-03-28T12:29:57.557Z,97935.23
2019-03-28T12:31:01.199Z,97929.48
2019-03-28T12:32:13.812Z,97923.88
2019-03-28T12:33:10.308Z,97926.64
2019-03-28T12:34:13.977Z,97922.88
2019-03-28T12:35:17.596Z,97914.59
2019-03-28T12:36:21.237Z,97920.08
2019-03-28T12:37:24.916Z,97924.70